Time;durP1;ratioP1;P1;durP2;ratioP2;P2;SDS_P1;SDS_P2;PMS_P1;PMS_P2;Temp;Humidity;BMP_temperature;BMP_pressure;BME280_temperature;BME280_humidity;BME280_pressure;Samples;Min_cycle;Max_cycle;Signal;HPM_P1;HPM_P2
2023/04/17 00:01:32;;;;;;;15.67;14.17;;;9.00;1.00;;;;;;6288549;22;20943;-86
2023/04/17 00:04:03;;;;;;;14.40;13.10;;;9.10;1.00;;;;;;6286630;22;20485;-87
2023/04/17 00:06:32;;;;;;;17.57;15.77;;;9.10;1.00;;;;;;6286167;22;20473;-85
2023/04/17 00:09:01;;;;;;;16.33;14.73;;;9.10;1.00;;;;;;6289889;22;20396;-87
2023/04/17 00:11:28;;;;;;;15.93;14.53;;;9.10;1.00;;;;;;6286942;22;20446;-85
2023/04/17 00:13:55;;;;;;;15.63;14.23;;;9.20;1.00;;;;;;6285354;22;20515;-87
2023/04/17 00:16:25;;;;;;;16.23;14.47;;;9.10;1.00;;;;;;6285031;22;20482;-87
2023/04/17 00:18:52;;;;;;;17.07;15.30;;;9.10;1.00;;;;;;6281520;22;20407;-87
2023/04/17 00:21:19;;;;;;;15.17;13.67;;;9.00;1.00;;;;;;6281747;22;20427;-87
2023/04/17 00:23:47;;;;;;;17.07;15.50;;;9.10;1.00;;;;;;6285515;22;20431;-87
2023/04/17 00:26:14;;;;;;;16.97;15.33;;;9.10;1.00;;;;;;6287460;22;20423;-88
2023/04/17 00:28:41;;;;;;;15.57;14.03;;;9.00;1.00;;;;;;6284662;22;20861;-87
2023/04/17 00:31:09;;;;;;;15.93;14.40;;;9.00;1.00;;;;;;6283938;22;20372;-86
2023/04/17 00:33:37;;;;;;;16.00;14.30;;;9.00;1.00;;;;;;6287264;22;20427;-87
2023/04/17 00:36:05;;;;;;;17.03;14.80;;;9.00;1.00;;;;;;6280018;22;20416;-87
2023/04/17 00:38:32;;;;;;;17.77;15.87;;;9.10;1.00;;;;;;6288883;22;20416;-87
2023/04/17 00:40:59;;;;;;;16.40;14.90;;;9.10;1.00;;;;;;6287425;22;20391;-87
2023/04/17 00:43:26;;;;;;;17.07;15.33;;;9.20;1.00;;;;;;6287641;22;20489;-87
2023/04/17 00:45:54;;;;;;;15.87;14.30;;;9.20;1.00;;;;;;6283726;22;21202;-87
2023/04/17 00:48:22;;;;;;;16.03;14.53;;;9.20;1.00;;;;;;6285344;22;20442;-87
2023/04/17 00:50:52;;;;;;;17.93;16.23;;;9.30;1.00;;;;;;6285709;22;20443;-87
2023/04/17 00:53:19;;;;;;;17.57;16.03;;;9.20;1.00;;;;;;6288515;22;20423;-87
2023/04/17 00:55:50;;;;;;;17.33;15.63;;;9.20;1.00;;;;;;6282283;22;21108;-87
2023/04/17 00:58:18;;;;;;;16.83;15.33;;;9.20;1.00;;;;;;6283617;22;20431;-88
2023/04/17 01:00:47;;;;;;;15.73;14.20;;;9.30;1.00;;;;;;6287533;22;21248;-87
2023/04/17 01:05:52;;;;;;;16.23;14.73;;;9.30;1.00;;;;;;6277847;22;20400;-80
2023/04/17 01:08:19;;;;;;;15.90;14.30;;;9.30;1.00;;;;;;6281758;22;20396;-80
2023/04/17 01:10:46;;;;;;;17.37;14.53;;;9.30;1.00;;;;;;6279104;22;20419;-79
2023/04/17 01:13:13;;;;;;;17.40;15.20;;;9.20;1.00;;;;;;6280736;22;20467;-79
2023/04/17 01:15:41;;;;;;;16.17;14.57;;;9.20;1.00;;;;;;6280791;22;20470;-80
2023/04/17 01:18:08;;;;;;;17.00;15.40;;;9.30;1.00;;;;;;6280786;22;20905;-79
2023/04/17 01:20:36;;;;;;;16.40;14.70;;;9.30;1.00;;;;;;6279178;22;20423;-80
2023/04/17 01:23:04;;;;;;;17.27;15.57;;;9.30;1.00;;;;;;6280238;22;21211;-79
2023/04/17 01:25:33;;;;;;;16.97;14.90;;;9.30;1.00;;;;;;6281030;22;20862;-79
2023/04/17 01:28:00;;;;;;;17.60;15.93;;;9.20;1.00;;;;;;6275635;22;20435;-80
2023/04/17 01:30:27;;;;;;;15.93;14.40;;;9.20;1.00;;;;;;6281403;22;20384;-80
2023/04/17 01:32:55;;;;;;;17.07;15.40;;;9.10;1.00;;;;;;6279984;22;20431;-80
2023/04/17 01:35:22;;;;;;;17.30;15.53;;;9.20;1.00;;;;;;6281640;22;20421;-81
2023/04/17 01:37:49;;;;;;;17.00;15.23;;;9.10;1.00;;;;;;6280479;22;20888;-81
2023/04/17 01:40:17;;;;;;;16.90;15.10;;;9.20;1.00;;;;;;6286965;22;20445;-81
2023/04/17 01:42:45;;;;;;;20.17;16.37;;;9.20;1.00;;;;;;6282077;22;20427;-81
2023/04/17 01:45:12;;;;;;;17.10;15.47;;;9.20;1.00;;;;;;6278950;22;20473;-80
2023/04/17 01:47:39;;;;;;;21.27;14.70;;;9.10;1.00;;;;;;6284361;22;20422;-80
2023/04/17 01:50:07;;;;;;;18.13;15.00;;;9.10;1.00;;;;;;6281405;22;20432;-80
2023/04/17 01:52:35;;;;;;;18.33;15.77;;;9.00;1.00;;;;;;6278671;22;20514;-81
2023/04/17 01:55:02;;;;;;;17.07;15.23;;;9.10;1.00;;;;;;6279387;22;20489;-81
2023/04/17 01:57:29;;;;;;;18.47;16.53;;;9.10;1.00;;;;;;6275979;22;20427;-80
2023/04/17 01:59:57;;;;;;;17.67;15.97;;;9.10;1.00;;;;;;6276721;22;20415;-79
2023/04/17 02:02:24;;;;;;;17.87;15.87;;;9.00;1.00;;;;;;6281538;22;20474;-80
2023/04/17 02:04:51;;;;;;;16.13;14.63;;;9.00;1.00;;;;;;6277741;22;20411;-80
2023/04/17 02:07:18;;;;;;;16.23;14.70;;;8.90;1.00;;;;;;6279185;22;20415;-80
2023/04/17 02:09:45;;;;;;;16.67;14.90;;;8.90;1.00;;;;;;6278733;22;20419;-80
2023/04/17 02:12:12;;;;;;;16.37;14.67;;;8.90;1.00;;;;;;6278404;22;20489;-81
2023/04/17 02:14:39;;;;;;;16.30;14.70;;;8.80;1.00;;;;;;6275402;22;20415;-81
2023/04/17 02:17:08;;;;;;;18.20;16.07;;;8.70;1.00;;;;;;6272623;22;20420;-80
2023/04/17 02:19:35;;;;;;;16.90;15.20;;;8.70;1.00;;;;;;6280019;22;20388;-80
2023/04/17 02:22:02;;;;;;;16.63;14.97;;;8.60;1.00;;;;;;6279388;22;20423;-81
2023/04/17 02:24:29;;;;;;;17.33;15.63;;;8.60;1.00;;;;;;6271374;22;20465;-80
2023/04/17 02:26:56;;;;;;;17.97;16.07;;;8.60;1.00;;;;;;6276831;22;20501;-81
2023/04/17 02:29:23;;;;;;;17.10;15.40;;;8.50;1.00;;;;;;6280330;22;20431;-80
2023/04/17 02:31:50;;;;;;;17.80;15.90;;;8.40;1.00;;;;;;6278027;22;20438;-80
2023/04/17 02:34:18;;;;;;;18.90;16.90;;;8.40;1.00;;;;;;6279036;22;20928;-81
2023/04/17 02:36:45;;;;;;;18.23;16.40;;;8.30;1.00;;;;;;6280087;22;20826;-80
2023/04/17 02:39:12;;;;;;;19.97;17.10;;;8.10;1.00;;;;;;6278497;22;20435;-80
2023/04/17 02:41:39;;;;;;;20.77;17.77;;;8.00;1.00;;;;;;6274982;22;20407;-80
2023/04/17 02:44:06;;;;;;;18.30;16.40;;;8.10;1.00;;;;;;6281067;22;20414;-80
2023/04/17 02:46:33;;;;;;;19.77;17.77;;;8.00;1.00;;;;;;6280531;22;20485;-80
2023/04/17 02:49:00;;;;;;;18.73;16.90;;;8.10;1.00;;;;;;6281731;22;20444;-80
2023/04/17 02:51:28;;;;;;;18.03;16.13;;;8.00;1.00;;;;;;6280463;22;20438;-80
2023/04/17 02:53:55;;;;;;;20.20;18.17;;;8.00;1.00;;;;;;6280943;22;20943;-80
2023/04/17 02:56:22;;;;;;;18.00;16.20;;;7.90;1.00;;;;;;6277854;22;20419;-80
2023/04/17 02:58:49;;;;;;;18.77;16.07;;;7.80;1.00;;;;;;6278063;22;20423;-79
2023/04/17 03:01:16;;;;;;;17.97;16.17;;;7.80;1.00;;;;;;6283969;22;21122;-80
2023/04/17 03:03:43;;;;;;;19.10;17.10;;;7.80;1.00;;;;;;6281204;22;20858;-80
2023/04/17 03:06:10;;;;;;;18.70;16.77;;;7.70;1.00;;;;;;6281793;22;20477;-80
2023/04/17 03:08:39;;;;;;;18.77;15.97;;;7.70;1.00;;;;;;6281046;22;20415;-79
2023/04/17 03:11:07;;;;;;;18.57;16.60;;;7.60;1.00;;;;;;6289991;22;20838;-79
2023/04/17 03:13:36;;;;;;;18.27;16.47;;;7.60;1.00;;;;;;6286764;22;20497;-80
2023/04/17 03:16:04;;;;;;;17.50;15.73;;;7.60;1.00;;;;;;6280083;22;21498;-81
2023/04/17 03:18:32;;;;;;;20.37;17.60;;;7.50;1.00;;;;;;6282112;22;21199;-81
2023/04/17 03:20:59;;;;;;;16.80;15.17;;;7.50;1.00;;;;;;6280767;22;20430;-81
2023/04/17 03:23:26;;;;;;;19.93;17.17;;;7.50;1.00;;;;;;6281697;22;20644;-81
2023/04/17 03:25:54;;;;;;;18.70;16.80;;;7.40;1.00;;;;;;6279183;22;20426;-79
2023/04/17 03:28:22;;;;;;;19.63;17.73;;;7.40;1.00;;;;;;6281990;22;20458;-80
2023/04/17 03:30:50;;;;;;;20.00;18.03;;;7.40;1.00;;;;;;6279733;22;20395;-80
2023/04/17 03:33:17;;;;;;;18.77;16.97;;;7.40;1.00;;;;;;6279686;22;20407;-80
2023/04/17 03:35:45;;;;;;;18.60;16.63;;;7.40;1.00;;;;;;6278121;22;20423;-80
2023/04/17 03:38:12;;;;;;;20.63;18.43;;;7.50;1.00;;;;;;6279923;22;20814;-80
2023/04/17 03:40:39;;;;;;;21.70;18.57;;;7.40;1.00;;;;;;6281335;22;20494;-80
2023/04/17 03:43:07;;;;;;;20.10;18.10;;;7.40;1.00;;;;;;6281028;22;20487;-81
2023/04/17 03:45:34;;;;;;;20.17;18.20;;;7.40;1.00;;;;;;6281317;22;20415;-80
2023/04/17 03:48:02;;;;;;;20.57;18.40;;;7.40;1.00;;;;;;6281386;22;20394;-80
2023/04/17 03:50:29;;;;;;;20.53;18.10;;;7.40;1.00;;;;;;6281931;22;20438;-80
2023/04/17 03:52:56;;;;;;;21.10;18.80;;;7.40;1.00;;;;;;6284323;22;20469;-79
2023/04/17 03:55:23;;;;;;;19.03;17.03;;;7.40;1.00;;;;;;6283811;22;20419;-80
2023/04/17 03:57:50;;;;;;;21.03;18.77;;;7.40;1.00;;;;;;6282568;22;20436;-79
2023/04/17 04:00:21;;;;;;;20.97;18.87;;;7.40;1.00;;;;;;6278389;22;20458;-79
2023/04/17 04:02:50;;;;;;;22.83;19.10;;;7.40;1.00;;;;;;6279479;22;20965;-81
2023/04/17 04:05:17;;;;;;;22.50;20.17;;;7.40;1.00;;;;;;6278589;22;20387;-80
2023/04/17 04:07:45;;;;;;;22.03;19.53;;;7.40;1.00;;;;;;6282272;22;20971;-82
2023/04/17 04:10:12;;;;;;;23.13;20.10;;;7.50;1.00;;;;;;6280276;22;20509;-81
2023/04/17 04:12:39;;;;;;;31.13;17.70;;;7.50;1.00;;;;;;6278877;22;20921;-79
2023/04/17 04:15:08;;;;;;;21.70;19.50;;;7.50;1.00;;;;;;6277464;22;20412;-81
2023/04/17 04:17:36;;;;;;;28.33;22.53;;;7.50;1.00;;;;;;6283055;22;20419;-81
2023/04/17 04:20:07;;;;;;;22.97;20.47;;;7.60;1.00;;;;;;6278014;22;21290;-80
2023/04/17 04:22:35;;;;;;;22.63;20.40;;;7.60;1.00;;;;;;6282481;22;20486;-80
2023/04/17 04:25:02;;;;;;;22.63;20.27;;;7.60;1.00;;;;;;6280865;22;20542;-80
2023/04/17 04:27:32;;;;;;;23.80;21.40;;;7.70;1.00;;;;;;6279129;22;20435;-80
2023/04/17 04:30:00;;;;;;;25.83;20.60;;;7.80;1.00;;;;;;6279451;22;20427;-80
2023/04/17 04:32:27;;;;;;;23.23;20.83;;;7.80;1.00;;;;;;6279102;22;21122;-81
2023/04/17 04:34:57;;;;;;;23.10;20.73;;;7.80;1.00;;;;;;6276580;22;20427;-81
2023/04/17 04:37:28;;;;;;;24.23;21.83;;;7.70;1.00;;;;;;6277184;22;20415;-81
2023/04/17 04:40:08;;;;;;;26.23;22.63;;;7.70;1.00;;;;;;6278670;22;21207;-81
2023/04/17 04:42:35;;;;;;;22.73;20.33;;;7.80;1.00;;;;;;6284770;22;20403;-83
2023/04/17 04:45:04;;;;;;;24.43;21.93;;;7.90;1.00;;;;;;6286090;22;20407;-83
2023/04/17 04:47:32;;;;;;;24.67;22.17;;;7.80;1.00;;;;;;6288096;22;20501;-82
2023/04/17 04:50:01;;;;;;;24.50;21.63;;;7.80;1.00;;;;;;6281441;22;21276;-79
2023/04/17 04:52:28;;;;;;;26.60;22.17;;;7.80;1.00;;;;;;6277479;22;20427;-81
2023/04/17 04:54:55;;;;;;;28.60;22.30;;;7.80;1.00;;;;;;6278048;22;20510;-80
2023/04/17 04:57:22;;;;;;;27.17;24.37;;;7.80;1.00;;;;;;6282254;22;20510;-80
2023/04/17 04:59:51;;;;;;;31.50;23.93;;;7.70;1.00;;;;;;6279186;22;20498;-82
2023/04/17 05:02:20;;;;;;;24.43;21.20;;;7.80;1.00;;;;;;6282128;22;20499;-80
2023/04/17 05:04:47;;;;;;;25.73;22.93;;;7.90;1.00;;;;;;6279706;22;20419;-80
2023/04/17 05:07:16;;;;;;;25.70;22.30;;;8.00;1.00;;;;;;6279794;22;20424;-79
2023/04/17 05:09:43;;;;;;;25.33;22.63;;;7.90;1.00;;;;;;6272187;22;20431;-80
2023/04/17 05:12:20;;;;;;;27.67;23.20;;;8.00;1.00;;;;;;6279603;22;20423;-79
2023/04/17 05:14:47;;;;;;;28.33;25.10;;;8.20;1.00;;;;;;6273227;22;20411;-81
2023/04/17 05:17:17;;;;;;;28.73;24.77;;;8.20;1.00;;;;;;6279721;22;20547;-81
2023/04/17 05:19:44;;;;;;;25.83;23.23;;;8.30;1.00;;;;;;6285158;22;20481;-82
2023/04/17 05:22:11;;;;;;;29.30;25.83;;;8.40;1.00;;;;;;6271120;22;20441;-81
2023/04/17 05:24:40;;;;;;;30.13;26.83;;;8.40;1.00;;;;;;6280775;22;20473;-81
2023/04/17 05:27:08;;;;;;;27.20;24.40;;;8.40;1.00;;;;;;6285267;22;20427;-81
2023/04/17 05:29:36;;;;;;;31.70;27.23;;;8.40;1.00;;;;;;6284164;22;20431;-81
2023/04/17 05:32:03;;;;;;;28.87;25.03;;;8.40;1.00;;;;;;6287789;22;20419;-82
2023/04/17 05:34:30;;;;;;;27.93;24.50;;;8.50;1.00;;;;;;6286351;22;20470;-81
2023/04/17 05:36:58;;;;;;;28.70;25.57;;;8.40;1.00;;;;;;6284700;22;20418;-79
2023/04/17 05:39:25;;;;;;;28.27;25.27;;;8.50;1.00;;;;;;6283665;22;20430;-80
2023/04/17 05:41:54;;;;;;;28.63;25.50;;;8.50;1.00;;;;;;6284094;22;20411;-82
2023/04/17 05:44:22;;;;;;;30.80;26.40;;;8.60;1.00;;;;;;6294018;22;20422;-84
2023/04/17 05:46:49;;;;;;;32.23;28.83;;;8.70;1.00;;;;;;6274007;22;21073;-82
2023/04/17 05:49:16;;;;;;;33.27;26.40;;;8.70;1.00;;;;;;6293000;22;20573;-84
2023/04/17 05:51:45;;;;;;;30.83;27.73;;;8.80;1.00;;;;;;6287065;22;20415;-83
2023/04/17 05:54:15;;;;;;;30.80;27.50;;;8.90;1.00;;;;;;6277324;22;20455;-83
2023/04/17 05:56:42;;;;;;;31.67;26.47;;;8.90;1.00;;;;;;6292234;22;20383;-82
2023/04/17 05:59:13;;;;;;;33.70;26.97;;;8.90;1.00;;;;;;6291494;22;20475;-82
2023/04/17 06:01:42;;;;;;;35.53;27.20;;;8.80;1.00;;;;;;6287637;22;20434;-83
2023/04/17 06:04:10;;;;;;;29.80;26.60;;;8.80;1.00;;;;;;6288684;22;21173;-82
2023/04/17 06:06:37;;;;;;;32.80;28.63;;;8.90;1.00;;;;;;6285330;22;20388;-83
2023/04/17 06:09:05;;;;;;;31.30;27.20;;;8.90;1.00;;;;;;6288602;22;20474;-85
2023/04/17 06:11:33;;;;;;;32.03;28.50;;;8.90;1.00;;;;;;6288328;22;20435;-82
2023/04/17 06:14:00;;;;;;;29.70;26.60;;;9.00;1.00;;;;;;6287469;22;20478;-83
2023/04/17 06:16:29;;;;;;;34.43;25.60;;;9.00;1.00;;;;;;6290762;22;20502;-82
2023/04/17 06:18:57;;;;;;;30.50;25.30;;;9.10;1.00;;;;;;6287858;22;20538;-83
2023/04/17 06:21:26;;;;;;;31.67;24.47;;;9.10;1.00;;;;;;6285138;22;20415;-80
2023/04/17 06:23:53;;;;;;;34.73;27.07;;;9.10;1.00;;;;;;6281859;22;20392;-81
2023/04/17 06:26:20;;;;;;;30.23;26.00;;;9.20;1.00;;;;;;6267207;22;20392;-80
2023/04/17 06:28:47;;;;;;;31.93;27.60;;;9.10;1.00;;;;;;6258522;22;20438;-81
2023/04/17 06:31:15;;;;;;;30.37;27.03;;;9.20;1.00;;;;;;6284156;22;20419;-81
2023/04/17 06:33:44;;;;;;;29.00;25.93;;;9.30;1.00;;;;;;6281898;22;20431;-81
2023/04/17 06:36:11;;;;;;;29.27;25.10;;;9.30;1.00;;;;;;6283647;22;20511;-81
2023/04/17 06:38:38;;;;;;;31.80;28.33;;;9.30;1.00;;;;;;6282411;22;21260;-82
2023/04/17 06:41:06;;;;;;;31.30;24.50;;;9.30;1.00;;;;;;6270171;22;20438;-81
2023/04/17 06:43:33;;;;;;;28.57;23.90;;;9.30;1.00;;;;;;6282900;22;20509;-80
2023/04/17 06:46:00;;;;;;;26.73;23.97;;;9.40;1.00;;;;;;6276026;22;20506;-78
2023/04/17 06:48:27;;;;;;;27.67;24.77;;;9.40;1.00;;;;;;6281031;22;20488;-80
2023/04/17 06:50:56;;;;;;;31.37;24.77;;;9.50;1.00;;;;;;6276905;22;20415;-82
2023/04/17 06:53:24;;;;;;;28.70;23.57;;;9.40;1.00;;;;;;6279285;22;20497;-85
2023/04/17 06:55:53;;;;;;;27.23;24.33;;;9.50;1.00;;;;;;6283422;22;20423;-80
2023/04/17 06:58:20;;;;;;;25.37;21.90;;;9.50;1.00;;;;;;6275032;22;20447;-80
2023/04/17 07:00:47;;;;;;;29.50;23.77;;;9.60;1.00;;;;;;6274744;22;20392;-80
2023/04/17 07:03:15;;;;;;;26.13;23.23;;;9.70;1.00;;;;;;6275742;22;20445;-80
2023/04/17 07:05:44;;;;;;;28.83;25.73;;;9.70;1.00;;;;;;6278809;22;20425;-81
2023/04/17 07:08:14;;;;;;;27.77;21.43;;;9.70;1.00;;;;;;6279505;22;20851;-80
2023/04/17 07:10:41;;;;;;;32.00;26.17;;;9.70;1.00;;;;;;6276887;22;20479;-80
2023/04/17 07:13:08;;;;;;;32.23;23.73;;;9.60;1.00;;;;;;6276797;22;20391;-80
2023/04/17 07:15:35;;;;;;;29.17;24.47;;;9.70;1.00;;;;;;6281196;22;20834;-82
2023/04/17 07:18:02;;;;;;;24.97;22.33;;;9.60;1.00;;;;;;6279787;22;20427;-80
2023/04/17 07:20:30;;;;;;;28.00;24.10;;;9.70;1.00;;;;;;6277682;22;21006;-81
2023/04/17 07:22:57;;;;;;;25.73;22.50;;;9.70;1.00;;;;;;6284144;22;20442;-79
2023/04/17 07:25:25;;;;;;;27.43;24.57;;;9.80;1.00;;;;;;6278474;22;20427;-81
2023/04/17 07:27:55;;;;;;;26.10;22.30;;;9.80;1.00;;;;;;6285132;22;20400;-80
2023/04/17 07:30:22;;;;;;;22.37;20.00;;;10.00;1.00;;;;;;6283277;22;20422;-80
2023/04/17 07:32:50;;;;;;;26.87;22.90;;;10.10;1.00;;;;;;6268684;22;20436;-80
2023/04/17 07:35:17;;;;;;;28.60;24.37;;;10.20;1.00;;;;;;6277416;22;20458;-81
2023/04/17 07:37:44;;;;;;;28.67;22.97;;;10.30;1.00;;;;;;6280290;22;20434;-79
2023/04/17 07:40:12;;;;;;;31.50;23.43;;;10.20;1.00;;;;;;6279380;22;20745;-80
2023/04/17 07:42:40;;;;;;;27.30;21.80;;;10.30;1.00;;;;;;6283462;22;20566;-80
2023/04/17 07:45:10;;;;;;;24.00;20.83;;;10.20;1.00;;;;;;6278224;22;20490;-81
2023/04/17 07:47:37;;;;;;;28.83;23.80;;;10.30;1.00;;;;;;6281111;22;20432;-80
2023/04/17 07:50:06;;;;;;;24.77;21.77;;;10.30;1.00;;;;;;6285416;22;20384;-81
2023/04/17 07:52:34;;;;;;;26.97;21.53;;;10.40;1.00;;;;;;6282906;22;20421;-81
2023/04/17 07:55:01;;;;;;;25.10;22.50;;;10.30;1.00;;;;;;6274826;22;20420;-80
2023/04/17 07:57:28;;;;;;;26.70;23.40;;;10.40;1.00;;;;;;6276791;22;20428;-79
2023/04/17 07:59:57;;;;;;;23.60;21.20;;;10.50;1.00;;;;;;6277917;22;20434;-79
2023/04/17 08:02:24;;;;;;;23.87;21.27;;;10.70;1.00;;;;;;6279125;22;20622;-80
2023/04/17 08:04:55;;;;;;;25.73;21.63;;;10.80;1.00;;;;;;6276238;22;20773;-81
2023/04/17 08:07:22;;;;;;;24.90;22.17;;;11.00;1.00;;;;;;6281468;22;21029;-80
2023/04/17 08:09:49;;;;;;;25.70;20.77;;;11.20;1.00;;;;;;6279546;22;20428;-79
2023/04/17 08:12:16;;;;;;;27.10;23.63;;;11.30;1.00;;;;;;6277631;22;20419;-77
2023/04/17 08:14:43;;;;;;;30.60;23.80;;;11.30;1.00;;;;;;6278729;22;20424;-80
2023/04/17 08:17:12;;;;;;;27.07;21.10;;;11.40;1.00;;;;;;6277250;22;20425;-78
2023/04/17 08:19:40;;;;;;;24.57;20.60;;;11.60;1.00;;;;;;6270302;22;21178;-77
2023/04/17 08:22:07;;;;;;;23.47;20.90;;;11.50;1.00;;;;;;6279427;22;20447;-80
2023/04/17 08:24:37;;;;;;;22.70;20.30;;;11.70;1.00;;;;;;6279613;22;20512;-80
2023/04/17 08:27:06;;;;;;;23.77;21.00;;;11.90;1.00;;;;;;6274040;22;20453;-78
2023/04/17 08:29:35;;;;;;;23.77;20.17;;;12.00;1.00;;;;;;6278257;22;20461;-79
2023/04/17 08:32:02;;;;;;;23.77;19.87;;;12.10;1.00;;;;;;6278996;22;20459;-82
2023/04/17 08:34:31;;;;;;;26.30;21.77;;;12.00;1.00;;;;;;6280637;22;20441;-82
2023/04/17 08:36:58;;;;;;;28.83;22.03;;;11.90;1.00;;;;;;6272338;22;20495;-79
2023/04/17 08:39:26;;;;;;;23.33;20.87;;;11.70;1.00;;;;;;6279317;22;20409;-80
2023/04/17 08:41:59;;;;;;;27.70;20.37;;;11.70;1.00;;;;;;6276604;22;20435;-77
2023/04/17 08:44:28;;;;;;;25.50;21.17;;;11.60;1.00;;;;;;6281074;22;21065;-83
2023/04/17 08:46:56;;;;;;;24.63;21.00;;;11.60;1.00;;;;;;6281891;22;20480;-79
2023/04/17 08:49:27;;;;;;;25.00;22.40;;;11.60;1.00;;;;;;6279621;22;21009;-80
2023/04/17 08:51:56;;;;;;;24.57;20.77;;;11.70;1.00;;;;;;6278511;22;20538;-80
2023/04/17 08:54:23;;;;;;;23.37;20.63;;;12.10;1.00;;;;;;6276945;22;20446;-77
2023/04/17 08:56:51;;;;;;;20.40;18.30;;;12.30;1.00;;;;;;6276559;22;20448;-81
2023/04/17 08:59:18;;;;;;;22.20;19.40;;;12.80;1.00;;;;;;6278014;22;20443;-78
2023/04/17 09:02:01;;;;;;;23.00;18.33;;;13.20;1.00;;;;;;6273924;22;20450;-77
2023/04/17 09:04:38;;;;;;;21.97;19.67;;;13.40;1.00;;;;;;6276021;22;20807;-79
2023/04/17 09:07:11;;;;;;;20.50;18.30;;;13.50;1.00;;;;;;6274644;22;20445;-77
2023/04/17 09:09:51;;;;;;;30.20;20.27;;;13.50;1.00;;;;;;6278641;22;20412;-77
2023/04/17 09:12:19;;;;;;;22.10;19.80;;;13.40;1.00;;;;;;6279671;22;20493;-78
2023/04/17 09:14:46;;;;;;;22.30;20.07;;;13.10;1.00;;;;;;6277461;22;20421;-80
2023/04/17 09:17:17;;;;;;;26.90;21.17;;;12.90;1.00;;;;;;6278071;22;21214;-79
2023/04/17 09:20:06;;;;;;;21.67;19.30;;;12.70;1.00;;;;;;6260108;22;20429;-78
2023/04/17 09:22:36;;;;;;;24.47;18.93;;;12.50;1.00;;;;;;6277280;22;20438;-79
2023/04/17 09:25:04;;;;;;;20.33;18.33;;;12.40;1.00;;;;;;6274805;22;20405;-80
2023/04/17 09:27:32;;;;;;;22.73;20.33;;;12.80;1.00;;;;;;6274404;22;20444;-77
2023/04/17 09:30:01;;;;;;;20.80;18.67;;;12.90;1.00;;;;;;6271668;22;20505;-80
2023/04/17 09:32:29;;;;;;;19.90;17.90;;;13.00;1.00;;;;;;6277437;22;20425;-77
2023/04/17 09:34:59;;;;;;;21.57;19.47;;;13.00;1.00;;;;;;6278333;22;20512;-82
2023/04/17 09:37:28;;;;;;;20.67;18.57;;;13.20;1.00;;;;;;6281884;22;20452;-80
2023/04/17 09:39:58;;;;;;;20.03;18.03;;;13.50;1.00;;;;;;6282409;22;20429;-79
2023/04/17 09:42:25;;;;;;;20.63;17.93;;;13.70;1.00;;;;;;6274524;22;20415;-78
2023/04/17 09:44:53;;;;;;;21.67;19.37;;;14.20;1.00;;;;;;6271853;22;20407;-78
2023/04/17 09:47:21;;;;;;;23.40;17.60;;;15.20;1.00;;;;;;6276141;22;20798;-79
2023/04/17 09:49:51;;;;;;;19.30;17.30;;;15.60;1.00;;;;;;6270229;22;21007;-79
2023/04/17 09:52:22;;;;;;;17.63;16.03;;;15.70;1.00;;;;;;6274785;22;21019;-79
2023/04/17 09:54:50;;;;;;;17.87;16.17;;;15.30;1.00;;;;;;6276241;22;20427;-77
2023/04/17 09:57:18;;;;;;;17.30;15.57;;;14.70;1.00;;;;;;6278268;22;20444;-78
2023/04/17 09:59:47;;;;;;;18.90;16.60;;;14.10;1.00;;;;;;6272319;22;20509;-80
2023/04/17 10:02:17;;;;;;;17.77;16.07;;;13.80;1.00;;;;;;6263931;22;21358;-79
2023/04/17 10:04:45;;;;;;;19.57;15.70;;;13.70;1.00;;;;;;6274100;22;20427;-81
2023/04/17 10:07:13;;;;;;;19.13;16.20;;;13.70;1.00;;;;;;6276817;22;20415;-81
2023/04/17 10:09:41;;;;;;;18.03;15.90;;;13.80;1.00;;;;;;6276312;22;20415;-82
2023/04/17 10:12:13;;;;;;;17.70;15.90;;;13.60;1.00;;;;;;6275908;22;21187;-81
2023/04/17 10:14:45;;;;;;;18.10;16.20;;;13.60;1.00;;;;;;6273718;22;20509;-81
2023/04/17 10:17:30;;;;;;;17.17;15.47;;;13.60;1.00;;;;;;6278379;22;21120;-80
2023/04/17 10:20:18;;;;;;;17.40;15.80;;;13.70;1.00;;;;;;6277514;22;20438;-82
2023/04/17 10:22:48;;;;;;;23.73;21.20;;;13.80;1.00;;;;;;6277269;22;20503;-81
2023/04/17 10:25:22;;;;;;;19.40;14.53;;;14.70;1.00;;;;;;6263566;22;20907;-80
2023/04/17 10:27:54;;;;;;;17.60;15.90;;;15.80;1.00;;;;;;6280033;22;20434;-80
2023/04/17 10:30:25;;;;;;;16.43;14.77;;;16.90;1.00;;;;;;6279066;22;20420;-79
2023/04/17 10:33:26;;;;;;;17.47;15.60;;;16.90;1.00;;;;;;6280888;22;20451;-81
2023/04/17 10:35:53;;;;;;;18.40;14.63;;;16.20;1.00;;;;;;6280672;22;20918;-82
2023/04/17 10:38:36;;;;;;;19.43;16.30;;;15.50;1.00;;;;;;6282319;22;20764;-80
2023/04/17 10:41:04;;;;;;;18.80;14.60;;;15.00;1.00;;;;;;6274895;22;20509;-81
2023/04/17 10:43:32;;;;;;;16.30;14.60;;;14.50;1.00;;;;;;6279799;22;20883;-81
2023/04/17 10:46:06;;;;;;;16.07;14.47;;;14.40;1.00;;;;;;6280339;22;20810;-81
2023/04/17 10:48:35;;;;;;;18.60;15.40;;;14.40;1.00;;;;;;6280929;22;20479;-80
2023/04/17 10:51:38;;;;;;;16.43;14.80;;;14.50;1.00;;;;;;6278628;22;20415;-80
2023/04/17 10:54:08;;;;;;;15.70;14.00;;;14.60;1.00;;;;;;6270597;22;20450;-80
2023/04/17 10:56:38;;;;;;;17.60;15.40;;;14.50;1.00;;;;;;6279992;22;20448;-81
2023/04/17 10:59:07;;;;;;;17.10;15.50;;;14.60;1.00;;;;;;6279883;22;20450;-79
2023/04/17 11:01:40;;;;;;;17.00;15.37;;;14.30;1.00;;;;;;6276704;22;21353;-79
2023/04/17 11:04:10;;;;;;;18.50;16.80;;;14.20;1.00;;;;;;6285732;22;20506;-81
2023/04/17 11:06:39;;;;;;;18.33;15.37;;;14.10;1.00;;;;;;6281479;22;20874;-79
2023/04/17 11:09:09;;;;;;;18.93;16.50;;;14.00;1.00;;;;;;6277778;22;20442;-79
2023/04/17 11:11:39;;;;;;;18.07;16.17;;;14.00;1.00;;;;;;6279565;22;20452;-80
2023/04/17 11:14:09;;;;;;;17.33;15.47;;;14.10;1.00;;;;;;6284894;22;20399;-80
2023/04/17 11:16:40;;;;;;;21.53;18.27;;;14.50;1.00;;;;;;6289842;22;20391;-79
2023/04/17 11:19:08;;;;;;;18.93;15.87;;;14.60;1.00;;;;;;6279329;22;20425;-78
2023/04/17 11:21:38;;;;;;;17.83;16.13;;;14.70;1.00;;;;;;6278483;22;20434;-78
2023/04/17 11:24:06;;;;;;;20.43;17.23;;;14.60;1.00;;;;;;6276469;22;20434;-79
2023/04/17 11:26:41;;;;;;;21.40;16.70;;;14.30;1.00;;;;;;6275462;22;20447;-79
2023/04/17 11:29:14;;;;;;;18.30;16.40;;;14.00;1.00;;;;;;6275993;22;20433;-78
2023/04/17 11:31:42;;;;;;;17.93;16.07;;;13.90;1.00;;;;;;6275740;22;20802;-80
2023/04/17 11:34:10;;;;;;;17.37;15.47;;;13.90;1.00;;;;;;6283584;22;20510;-79
2023/04/17 11:36:37;;;;;;;18.90;16.90;;;13.90;1.00;;;;;;6283746;22;20391;-79
2023/04/17 11:39:04;;;;;;;19.07;16.30;;;13.90;1.00;;;;;;6273900;22;20435;-79
2023/04/17 11:41:36;;;;;;;19.13;16.20;;;13.70;1.00;;;;;;6279841;22;20435;-80
2023/04/17 11:44:03;;;;;;;17.60;15.70;;;13.30;1.00;;;;;;6278304;22;20619;-81
2023/04/17 11:46:30;;;;;;;22.00;17.77;;;13.10;1.00;;;;;;6281038;22;20896;-78
2023/04/17 11:48:58;;;;;;;17.87;15.97;;;13.20;1.00;;;;;;6263512;22;20476;-81
2023/04/17 11:51:26;;;;;;;19.03;17.10;;;13.50;1.00;;;;;;6276154;22;20919;-79
2023/04/17 11:53:55;;;;;;;18.00;16.23;;;14.10;1.00;;;;;;6280845;22;20430;-79
2023/04/17 11:56:27;;;;;;;19.80;17.00;;;14.60;1.00;;;;;;6278359;22;20457;-81
2023/04/17 11:58:55;;;;;;;17.03;15.33;;;14.90;1.00;;;;;;6260834;22;20479;-83
2023/04/17 12:03:34;;;;;;;17.87;15.97;;;14.30;1.00;;;;;;5111554;27;1292607;-80
2023/04/17 12:06:02;;;;;;;17.70;15.83;;;14.00;1.00;;;;;;5141529;27;20432;-82
2023/04/17 12:08:30;;;;;;;17.83;16.07;;;13.90;1.00;;;;;;5149091;27;20463;-79
2023/04/17 12:11:01;;;;;;;19.70;17.67;;;13.70;1.00;;;;;;5163978;27;21312;-81
2023/04/17 12:13:34;;;;;;;20.53;17.73;;;13.50;1.00;;;;;;5151058;27;20525;-81
2023/04/17 12:16:01;;;;;;;18.87;16.83;;;13.60;1.00;;;;;;5145175;27;20470;-79
2023/04/17 12:18:28;;;;;;;21.07;18.87;;;13.40;1.00;;;;;;5142952;27;20566;-79
2023/04/17 12:20:56;;;;;;;18.73;16.57;;;13.40;1.00;;;;;;5145132;27;20459;-79
2023/04/17 12:23:23;;;;;;;18.70;16.80;;;13.10;1.00;;;;;;5146267;27;21454;-79
2023/04/17 12:25:50;;;;;;;21.97;18.80;;;12.90;1.00;;;;;;5148804;27;20891;-85
2023/04/17 12:28:17;;;;;;;18.63;16.63;;;12.90;1.00;;;;;;5145373;27;20450;-80
2023/04/17 12:30:44;;;;;;;20.50;18.07;;;12.80;1.00;;;;;;5143709;27;20470;-80
2023/04/17 12:33:11;;;;;;;19.23;17.30;;;12.60;1.00;;;;;;5143415;27;20515;-82
2023/04/17 12:35:40;;;;;;;17.90;16.00;;;12.50;1.00;;;;;;5146061;27;21070;-84
2023/04/17 12:38:09;;;;;;;22.20;16.87;;;12.40;1.00;;;;;;5147713;27;21273;-81
2023/04/17 12:40:37;;;;;;;27.87;17.80;;;12.30;1.00;;;;;;5139292;27;20459;-79
2023/04/17 12:43:07;;;;;;;23.37;19.47;;;12.30;1.00;;;;;;5142775;27;20460;-79
2023/04/17 12:45:35;;;;;;;20.10;17.80;;;12.20;1.00;;;;;;5144168;27;20533;-80
2023/04/17 12:48:05;;;;;;;22.83;18.00;;;12.00;1.00;;;;;;5142974;27;20472;-81
2023/04/17 12:50:32;;;;;;;23.33;19.40;;;12.00;1.00;;;;;;5144919;27;20519;-80
2023/04/17 12:52:59;;;;;;;22.53;20.07;;;12.20;1.00;;;;;;5144344;27;20472;-82
2023/04/17 12:55:31;;;;;;;23.53;19.30;;;12.20;1.00;;;;;;5150529;27;20441;-81